Irishtown, Illinois
Current Conditions -  °F | °C
As of 2:15 PM on Friday 21 Nov 2014 (Local Time) from KENL Reporting Station
Broken Clouds Broken Clouds  
Wind Chill:   Ceiling: 4000
Heat Index:   Visibility: 10mi
Dew Point: -8°   Wind: 12mph
Humidity: 39%   Direction: 130°SE
Pressure: 30.35"   Gusts: 16mph
Location:  38.7527°N, 89.3215°W
Report Text: KENL 212015Z AUTO 13010G14KT 10SM BKN040 05/M08 A3035 RMK AO2 T00491082
Loading
Personal Weather Stations






























Interactive Weather Map New forecast layout! Learn more

10-Day Weather Forecast

Advertisements
Track Severe Weather on mobile